KSKF/SKF METAR and TAF weather

Enter ICAO airport designator
Station Type Date Time Source
KSKF METAR 2019/10/15 03:31 UTC NOAA

KSKF 150331Z AUTO 16007KT 10SM SCT060 28/20 A2992 RMK AO2 SLP124


Station Type Date Time Source
KSKF Decoded METAR 2019/10/15 03:31 UTC NOAA

Kelly Air Force Base, TX, United States (KSKF) 29-23N 098-35W
Oct 14, 2019 - 11:31 PM EDT / 2019.10.15 0331 UTC
Wind: from the SSE (160 degrees) at 8 MPH (7 KT):0
Visibility: 10 mile(s):0
Sky conditions: partly cloudy
Temperature: 82 F (28 C)
Dew Point: 68 F (20 C)
Relative Humidity: 61%
Pressure (altimeter): 29.92 in. Hg (1013 hPa)
ob: KSKF 150331Z AUTO 16007KT 10SM SCT060 28/20 A2992 RMK AO2 SLP124
cycle: 3

Station Type Date Time Source
KSKF TAF 2019/10/15 02:11 UTC NOAA

TAF KSKF 150200Z 1502/1608 16007KT 9999 SCT060 QNH2988INS
BECMG 1507/1508 15006KT 9999 SCT008 BKN015 QNH2992INS
TEMPO 1510/1515 BKN007 OVC013
BECMG 1515/1516 18008KT 9999 SCT015 BKN035 QNH2988INS
BECMG 1521/1522 23008KT 9999 VCSH SCT060 BKN100 BKN250 QNH2984INS
BECMG 1605/1606 03009KT 9999 VCTS BKN040CB BKN080 OVC250 QNH2994INS TX34/1521Z TN23/1511Z

Example: see airport list